Time;durP1;ratioP1;P1;durP2;ratioP2;P2;SDS_P1;SDS_P2;PMS_P1;PMS_P2;Temp;Humidity;BMP_temperature;BMP_pressure;BME280_temperature;BME280_humidity;BME280_pressure;Samples;Min_cycle;Max_cycle;Signal;HPM_P1;HPM_P2
2021/11/24 00:00:44;;;;;;;61.88;25.60;;;5.60;99.90;;;;;;5008205;28;20034;-84
2021/11/24 00:03:10;;;;;;;46.70;21.15;;;5.70;99.90;;;;;;5039682;28;20026;-84
2021/11/24 00:05:35;;;;;;;51.33;21.23;;;5.70;99.90;;;;;;5020066;28;20022;-84
2021/11/24 00:08:01;;;;;;;49.92;20.30;;;5.70;99.90;;;;;;5020828;28;20022;-84
2021/11/24 00:10:32;;;;;;;41.42;19.25;;;5.70;99.90;;;;;;5021986;28;20072;-84
2021/11/24 00:12:57;;;;;;;45.15;20.27;;;5.70;99.90;;;;;;5018263;28;20037;-84
2021/11/24 00:15:23;;;;;;;61.47;25.35;;;5.70;99.90;;;;;;5007875;28;20497;-84
2021/11/24 00:17:49;;;;;;;44.28;20.65;;;5.70;99.90;;;;;;5019052;28;21018;-84
2021/11/24 00:20:15;;;;;;;46.88;20.80;;;5.70;99.90;;;;;;5017727;28;20029;-84
2021/11/24 00:22:41;;;;;;;72.65;26.13;;;5.70;99.90;;;;;;5007223;28;20033;-84
2021/11/24 00:25:07;;;;;;;58.60;26.02;;;5.70;99.90;;;;;;5005224;28;20033;-84
2021/11/24 00:27:32;;;;;;;86.65;28.33;;;5.70;99.90;;;;;;5020450;28;20320;-84
2021/11/24 00:29:58;;;;;;;52.67;21.05;;;5.70;99.90;;;;;;5020095;28;20049;-84
2021/11/24 00:32:24;;;;;;;66.55;24.02;;;5.60;99.90;;;;;;4995324;28;20030;-84
2021/11/24 00:34:49;;;;;;;58.63;23.25;;;5.60;99.90;;;;;;4991675;28;20025;-84
2021/11/24 00:37:18;;;;;;;62.85;20.45;;;5.60;99.90;;;;;;5011839;28;20030;-84
2021/11/24 00:39:43;;;;;;;46.88;18.73;;;5.60;99.90;;;;;;4990872;28;20477;-84
2021/11/24 00:42:09;;;;;;;44.00;20.10;;;5.60;99.90;;;;;;5019954;28;20036;-84
2021/11/24 00:44:35;;;;;;;52.15;20.00;;;5.60;99.90;;;;;;5018932;28;20064;-84
2021/11/24 00:47:00;;;;;;;44.92;19.35;;;5.60;99.90;;;;;;5032015;28;20036;-84
2021/11/24 00:49:27;;;;;;;57.35;21.77;;;5.60;99.90;;;;;;5007476;28;20026;-84
2021/11/24 00:51:52;;;;;;;56.47;21.10;;;5.60;99.90;;;;;;5007877;28;20063;-84
2021/11/24 00:54:18;;;;;;;51.97;20.45;;;5.60;99.90;;;;;;5006411;28;20033;-84
2021/11/24 00:56:44;;;;;;;71.28;25.27;;;5.70;99.90;;;;;;5008110;28;20036;-84
2021/11/24 00:59:09;;;;;;;50.80;19.20;;;5.60;99.90;;;;;;5007185;28;20026;-84
2021/11/24 01:01:35;;;;;;;79.13;26.38;;;5.60;99.90;;;;;;5021559;28;20033;-84
2021/11/24 01:04:03;;;;;;;91.40;26.77;;;5.60;99.90;;;;;;5022442;28;20116;-84
2021/11/24 01:06:28;;;;;;;86.20;27.75;;;5.60;99.90;;;;;;5018142;28;20076;-84
2021/11/24 01:08:54;;;;;;;91.22;28.00;;;5.60;99.90;;;;;;5011706;28;20029;-84
2021/11/24 01:11:20;;;;;;;104.80;30.70;;;5.60;99.90;;;;;;5011146;28;20044;-84
2021/11/24 01:13:46;;;;;;;69.07;24.13;;;5.60;99.90;;;;;;5008651;28;20017;-84
2021/11/24 01:16:11;;;;;;;55.58;19.75;;;5.60;99.90;;;;;;5022114;28;20029;-84
2021/11/24 01:18:37;;;;;;;60.00;21.95;;;5.60;99.90;;;;;;5022019;28;20041;-84
2021/11/24 01:21:03;;;;;;;61.92;19.42;;;5.60;99.90;;;;;;4994363;28;20044;-84
2021/11/24 01:23:28;;;;;;;61.33;23.63;;;5.60;99.90;;;;;;5026189;28;20040;-84
2021/11/24 01:25:54;;;;;;;83.03;26.23;;;5.60;99.90;;;;;;5009080;28;20060;-84
2021/11/24 01:28:20;;;;;;;56.03;20.58;;;5.70;99.90;;;;;;5020982;28;20073;-84
2021/11/24 01:30:45;;;;;;;83.90;25.75;;;5.70;99.90;;;;;;5006424;28;20037;-84
2021/11/24 01:33:11;;;;;;;64.80;21.38;;;5.80;99.90;;;;;;5020357;28;20462;-84
2021/11/24 01:35:37;;;;;;;55.15;22.80;;;5.80;99.90;;;;;;5022031;28;20025;-84
2021/11/24 01:38:03;;;;;;;60.88;23.17;;;5.80;99.90;;;;;;5040617;28;20037;-84
2021/11/24 01:40:28;;;;;;;55.72;20.08;;;5.80;99.90;;;;;;5022335;28;20030;-84
2021/11/24 01:42:54;;;;;;;46.00;18.88;;;5.80;99.90;;;;;;4994001;28;20056;-84
2021/11/24 01:45:20;;;;;;;96.30;27.88;;;5.70;99.90;;;;;;5025756;28;20029;-84
2021/11/24 01:47:46;;;;;;;55.08;18.48;;;5.70;99.90;;;;;;4981516;28;20026;-84
2021/11/24 01:50:11;;;;;;;97.30;28.50;;;5.80;99.90;;;;;;5019957;28;20026;-84
2021/11/24 01:52:37;;;;;;;58.30;20.83;;;5.70;99.90;;;;;;5016674;28;20057;-84
2021/11/24 01:55:03;;;;;;;86.70;25.35;;;5.70;99.90;;;;;;5021909;28;20032;-84
2021/11/24 01:57:29;;;;;;;63.05;20.73;;;5.70;99.90;;;;;;5021182;28;20033;-84
2021/11/24 01:59:58;;;;;;;83.57;25.75;;;5.70;99.90;;;;;;5024656;28;20397;-84
2021/11/24 02:02:25;;;;;;;61.03;21.48;;;5.70;99.90;;;;;;5010247;28;20060;-84
2021/11/24 02:04:50;;;;;;;85.38;26.48;;;5.70;99.90;;;;;;5017316;28;20025;-84
2021/11/24 02:07:16;;;;;;;87.28;25.00;;;5.70;99.90;;;;;;5009092;28;20267;-84
2021/11/24 02:09:45;;;;;;;59.20;21.45;;;5.70;99.90;;;;;;5010739;28;20033;-84
2021/11/24 02:12:11;;;;;;;46.33;20.55;;;5.70;99.90;;;;;;5020959;28;20120;-84
2021/11/24 02:14:37;;;;;;;61.53;21.23;;;5.80;99.90;;;;;;5010163;28;20421;-84
2021/11/24 02:17:04;;;;;;;60.38;23.58;;;5.80;99.90;;;;;;5043004;28;20040;-84
2021/11/24 02:19:31;;;;;;;55.40;21.88;;;5.80;99.90;;;;;;5007741;28;20508;-84
2021/11/24 02:21:57;;;;;;;103.13;29.42;;;5.80;99.90;;;;;;5037347;28;20429;-84
2021/11/24 02:24:25;;;;;;;81.82;23.70;;;5.80;99.90;;;;;;5018016;28;20083;-84
2021/11/24 02:26:51;;;;;;;71.93;24.75;;;5.80;99.90;;;;;;5037366;28;20037;-84
2021/11/24 02:29:16;;;;;;;65.32;22.20;;;5.70;99.90;;;;;;5020994;28;20041;-84
2021/11/24 02:31:46;;;;;;;72.88;24.10;;;5.80;99.90;;;;;;5007933;28;20029;-84
2021/11/24 02:34:11;;;;;;;84.25;25.17;;;5.80;99.90;;;;;;5038595;28;20034;-84
2021/11/24 02:36:37;;;;;;;98.68;27.55;;;5.70;99.90;;;;;;5039128;28;20079;-84
2021/11/24 02:39:03;;;;;;;67.68;21.77;;;5.70;99.90;;;;;;5019150;28;20022;-84
2021/11/24 02:41:29;;;;;;;96.03;27.38;;;5.70;99.90;;;;;;5009011;28;20541;-85
2021/11/24 02:43:55;;;;;;;99.90;27.85;;;5.70;99.90;;;;;;5017841;28;20042;-85
2021/11/24 02:46:20;;;;;;;74.80;21.40;;;5.70;99.90;;;;;;5008682;28;20073;-85
2021/11/24 02:48:46;;;;;;;86.53;25.65;;;5.70;99.90;;;;;;4988577;28;20067;-84
2021/11/24 02:51:12;;;;;;;78.70;21.67;;;5.70;99.90;;;;;;5020952;28;20393;-84
2021/11/24 02:53:37;;;;;;;52.33;18.73;;;5.70;99.90;;;;;;5003255;28;20400;-84
2021/11/24 02:56:03;;;;;;;60.42;19.80;;;5.70;99.90;;;;;;5019216;28;20030;-85
2021/11/24 02:58:31;;;;;;;61.33;22.10;;;5.70;99.90;;;;;;5017423;28;20391;-84
2021/11/24 03:00:58;;;;;;;73.47;23.65;;;5.70;99.90;;;;;;5009294;28;20542;-84
2021/11/24 03:03:23;;;;;;;62.08;19.60;;;5.70;99.90;;;;;;5008784;28;20096;-84
2021/11/24 03:05:50;;;;;;;75.15;24.00;;;5.70;99.90;;;;;;5008471;28;20021;-84
2021/11/24 03:08:16;;;;;;;42.53;17.70;;;5.70;99.90;;;;;;5022703;28;20033;-84
2021/11/24 03:10:42;;;;;;;45.40;17.33;;;5.70;99.90;;;;;;5038713;28;20087;-84
2021/11/24 03:13:07;;;;;;;51.70;18.38;;;5.70;99.90;;;;;;4997996;28;20425;-84
2021/11/24 03:15:33;;;;;;;77.20;23.95;;;5.70;99.90;;;;;;5037423;28;20065;-85
2021/11/24 03:17:58;;;;;;;57.30;18.77;;;5.70;99.90;;;;;;5020328;28;20042;-84
2021/11/24 03:20:26;;;;;;;114.93;31.02;;;5.70;99.90;;;;;;5021370;28;20038;-84
2021/11/24 03:22:53;;;;;;;103.18;27.05;;;5.70;99.90;;;;;;5008835;28;20030;-84
2021/11/24 03:25:18;;;;;;;84.82;25.80;;;5.70;99.90;;;;;;5007210;28;20026;-84
2021/11/24 03:27:44;;;;;;;119.65;29.63;;;5.70;99.90;;;;;;5008302;28;20390;-85
2021/11/24 03:30:14;;;;;;;68.28;21.73;;;5.70;99.90;;;;;;5008988;28;20025;-84
2021/11/24 03:32:40;;;;;;;97.43;26.85;;;5.60;99.90;;;;;;5012677;28;20473;-84
2021/11/24 03:35:06;;;;;;;76.47;23.23;;;5.70;99.90;;;;;;5037509;28;20025;-84
2021/11/24 03:37:32;;;;;;;62.78;18.98;;;5.70;99.90;;;;;;5003446;28;20087;-84
2021/11/24 03:39:58;;;;;;;60.92;20.50;;;5.70;99.90;;;;;;5021637;28;20116;-84
2021/11/24 03:42:23;;;;;;;53.88;19.00;;;5.80;99.90;;;;;;5006196;28;20194;-84
2021/11/24 03:44:49;;;;;;;106.55;26.75;;;5.70;99.90;;;;;;5033386;28;20029;-84
2021/11/24 03:47:14;;;;;;;89.35;24.92;;;5.70;99.90;;;;;;5019894;28;20052;-84
2021/11/24 03:49:40;;;;;;;63.08;20.83;;;5.70;99.90;;;;;;4992614;28;20053;-84
2021/11/24 03:52:06;;;;;;;111.68;29.42;;;5.70;99.90;;;;;;5036140;28;20280;-84
2021/11/24 03:54:31;;;;;;;109.63;27.25;;;5.70;99.90;;;;;;5019562;28;20401;-84
2021/11/24 03:56:57;;;;;;;102.28;26.98;;;5.70;99.90;;;;;;5004692;28;20029;-84
2021/11/24 03:59:22;;;;;;;76.97;22.20;;;5.70;99.90;;;;;;5020659;28;20038;-84
2021/11/24 04:01:48;;;;;;;80.68;24.50;;;5.70;99.90;;;;;;5032280;28;20493;-84
2021/11/24 04:04:14;;;;;;;63.65;19.42;;;5.80;99.90;;;;;;5007253;28;20088;-84
2021/11/24 04:06:39;;;;;;;100.63;28.17;;;5.80;99.90;;;;;;5008443;28;20087;-85
2021/11/24 04:09:05;;;;;;;77.03;22.60;;;5.80;99.90;;;;;;5019603;28;20033;-85
2021/11/24 04:11:30;;;;;;;82.18;22.60;;;5.70;99.90;;;;;;5019710;28;20490;-84
2021/11/24 04:13:56;;;;;;;65.70;19.45;;;5.70;99.90;;;;;;5034349;28;20033;-85
2021/11/24 04:16:22;;;;;;;86.20;25.40;;;5.70;99.90;;;;;;5007677;28;20042;-84
2021/11/24 04:18:48;;;;;;;73.40;21.65;;;5.70;99.90;;;;;;5006500;28;20041;-84
2021/11/24 04:21:14;;;;;;;98.68;25.88;;;5.70;99.90;;;;;;5008298;28;20060;-84
2021/11/24 04:23:40;;;;;;;92.93;25.30;;;5.70;99.90;;;;;;5007725;28;20575;-84
2021/11/24 04:26:06;;;;;;;87.20;24.08;;;5.70;99.90;;;;;;5019660;28;20034;-84
2021/11/24 04:28:31;;;;;;;75.55;21.80;;;5.70;99.90;;;;;;5018722;28;20497;-84
2021/11/24 04:30:57;;;;;;;89.75;22.60;;;5.70;99.90;;;;;;5008049;28;20516;-84
2021/11/24 04:33:22;;;;;;;90.72;24.63;;;5.70;99.90;;;;;;5020176;28;20104;-84
2021/11/24 04:35:48;;;;;;;108.80;28.23;;;5.70;99.90;;;;;;5009003;28;20432;-84
2021/11/24 04:38:14;;;;;;;114.03;30.25;;;5.70;99.90;;;;;;5020148;28;20389;-85
2021/11/24 04:40:40;;;;;;;115.72;28.70;;;5.70;99.90;;;;;;5010912;28;20511;-84
2021/11/24 04:43:08;;;;;;;87.57;24.83;;;5.70;99.90;;;;;;5023412;28;20034;-84
2021/11/24 04:45:34;;;;;;;77.55;22.17;;;5.80;99.90;;;;;;5024407;28;20080;-84
2021/11/24 04:47:59;;;;;;;75.72;22.50;;;5.80;99.90;;;;;;5023595;28;20034;-85
2021/11/24 04:50:25;;;;;;;110.93;25.17;;;5.80;99.90;;;;;;5009888;28;20037;-85
2021/11/24 04:52:51;;;;;;;66.25;19.20;;;5.80;99.90;;;;;;5006555;28;20049;-84
2021/11/24 04:55:16;;;;;;;144.07;33.28;;;5.80;99.90;;;;;;5023894;28;20021;-85
2021/11/24 04:57:42;;;;;;;109.30;25.63;;;5.80;99.90;;;;;;4994633;28;20052;-85
2021/11/24 05:00:13;;;;;;;63.92;18.90;;;5.80;99.90;;;;;;5009142;28;20452;-84
2021/11/24 05:02:38;;;;;;;151.70;30.02;;;5.80;99.90;;;;;;5006904;28;20040;-84
2021/11/24 05:05:04;;;;;;;51.25;17.67;;;5.80;99.90;;;;;;5023582;28;20034;-85
2021/11/24 05:07:30;;;;;;;79.80;20.88;;;5.70;99.90;;;;;;5022948;28;20038;-85
2021/11/24 05:09:55;;;;;;;196.90;30.92;;;5.80;99.90;;;;;;5034668;28;20079;-85
2021/11/24 05:12:21;;;;;;;74.45;21.13;;;5.80;99.90;;;;;;5028773;28;20033;-85
2021/11/24 05:14:49;;;;;;;64.68;19.08;;;5.80;99.90;;;;;;5022992;28;20033;-85
2021/11/24 05:17:16;;;;;;;188.10;28.38;;;5.80;99.90;;;;;;5026103;28;20057;-84
2021/11/24 05:19:47;;;;;;;130.23;22.92;;;5.70;99.90;;;;;;5009442;28;20522;-84
2021/11/24 05:22:13;;;;;;;75.82;19.25;;;5.80;99.90;;;;;;5008537;28;20370;-83
2021/11/24 05:24:38;;;;;;;97.60;22.58;;;5.80;99.90;;;;;;5017191;28;20037;-84
2021/11/24 05:27:05;;;;;;;78.80;19.77;;;5.80;99.90;;;;;;5036862;28;20029;-83
2021/11/24 05:29:30;;;;;;;77.45;18.52;;;5.80;99.90;;;;;;5022142;28;20049;-83
2021/11/24 05:31:56;;;;;;;58.10;17.90;;;5.80;99.90;;;;;;5011970;28;20030;-85
2021/11/24 05:34:21;;;;;;;66.03;19.50;;;5.80;99.90;;;;;;5005203;28;20037;-84
2021/11/24 05:36:47;;;;;;;277.58;37.78;;;5.80;99.90;;;;;;5041771;28;20037;-84
2021/11/24 05:39:13;;;;;;;167.57;29.10;;;5.80;99.90;;;;;;5023372;28;20037;-84
2021/11/24 05:41:41;;;;;;;129.10;23.52;;;5.80;99.90;;;;;;5023770;28;20371;-84
2021/11/24 05:44:25;;;;;;;59.63;17.20;;;5.80;99.90;;;;;;5037557;28;20256;-84
2021/11/24 05:46:58;;;;;;;81.95;18.73;;;5.80;99.90;;;;;;5014916;28;20029;-84
2021/11/24 05:49:25;;;;;;;82.00;20.88;;;5.80;99.90;;;;;;5039591;28;20038;-84
2021/11/24 05:51:51;;;;;;;246.07;28.60;;;5.80;99.90;;;;;;5003141;28;20077;-84
2021/11/24 05:54:17;;;;;;;437.90;35.67;;;5.80;99.90;;;;;;5036617;28;20036;-84
2021/11/24 05:56:43;;;;;;;362.80;32.22;;;5.80;99.90;;;;;;4993555;28;20022;-85
2021/11/24 05:59:10;;;;;;;273.35;28.05;;;5.80;99.90;;;;;;5010652;28;20033;-86
2021/11/24 06:01:36;;;;;;;69.45;21.63;;;5.80;99.90;;;;;;5024072;28;20049;-85
2021/11/24 06:04:02;;;;;;;95.93;20.60;;;5.90;99.90;;;;;;5017818;28;20076;-88
2021/11/24 06:06:28;;;;;;;198.95;27.05;;;5.90;99.90;;;;;;5009066;28;20037;-85
2021/11/24 06:08:53;;;;;;;479.00;34.88;;;5.80;99.90;;;;;;5038276;28;20029;-84
2021/11/24 06:11:19;;;;;;;384.45;36.42;;;5.80;99.90;;;;;;5037155;28;20120;-87
2021/11/24 06:13:45;;;;;;;80.63;21.98;;;5.80;99.90;;;;;;5040419;28;20521;-84
2021/11/24 06:16:10;;;;;;;63.92;18.27;;;5.90;99.90;;;;;;5025900;28;20116;-85
2021/11/24 06:18:36;;;;;;;120.38;24.63;;;5.80;99.90;;;;;;5041761;28;20029;-85
2021/11/24 06:21:02;;;;;;;263.40;29.95;;;5.90;99.90;;;;;;5021317;28;20593;-83
2021/11/24 06:23:27;;;;;;;62.78;19.30;;;5.90;99.90;;;;;;5009497;28;20306;-85
2021/11/24 06:25:53;;;;;;;245.52;28.98;;;5.80;99.90;;;;;;4993237;28;20045;-84
2021/11/24 06:28:19;;;;;;;369.60;32.60;;;5.80;99.90;;;;;;5038508;28;20037;-85
2021/11/24 06:30:44;;;;;;;63.58;19.23;;;5.80;99.90;;;;;;5009724;28;20401;-85
2021/11/24 06:33:10;;;;;;;67.70;19.73;;;5.90;99.90;;;;;;5009692;28;20468;-85
2021/11/24 06:35:36;;;;;;;66.55;19.27;;;5.80;99.90;;;;;;5018683;28;20111;-85
2021/11/24 06:38:01;;;;;;;207.88;30.00;;;5.90;99.90;;;;;;5038449;28;20428;-85
2021/11/24 06:40:27;;;;;;;261.75;33.60;;;5.90;99.90;;;;;;5020545;28;20072;-85
2021/11/24 06:42:52;;;;;;;285.27;34.65;;;5.90;99.90;;;;;;4993845;28;20033;-85
2021/11/24 06:45:22;;;;;;;99.03;22.77;;;5.90;99.90;;;;;;5023615;28;20030;-85
2021/11/24 06:47:48;;;;;;;295.58;33.85;;;5.90;99.90;;;;;;5008210;28;20064;-85
2021/11/24 06:50:16;;;;;;;253.73;35.15;;;5.90;99.90;;;;;;5019366;28;20481;-85
2021/11/24 06:52:41;;;;;;;403.58;38.05;;;5.90;99.90;;;;;;5008894;28;20413;-85
2021/11/24 06:55:07;;;;;;;438.52;38.45;;;5.90;99.90;;;;;;5038228;28;20029;-89
2021/11/24 06:57:33;;;;;;;166.77;24.08;;;5.90;99.90;;;;;;5023434;28;20936;-89
2021/11/24 06:59:58;;;;;;;193.95;26.10;;;5.90;99.90;;;;;;5011290;28;20076;-90
2021/11/24 07:02:24;;;;;;;476.13;35.50;;;5.90;99.90;;;;;;5011704;28;20119;-89
2021/11/24 07:04:50;;;;;;;293.75;34.45;;;5.90;99.90;;;;;;4995609;28;20107;-87
2021/11/24 07:07:15;;;;;;;79.20;20.92;;;5.90;99.90;;;;;;5040972;28;20033;-88
2021/11/24 07:09:41;;;;;;;62.22;20.10;;;5.90;99.90;;;;;;5006677;28;20041;-90
2021/11/24 07:12:10;;;;;;;204.27;29.83;;;5.90;99.90;;;;;;5020426;28;20525;-89
2021/11/24 07:14:36;;;;;;;81.57;20.05;;;5.90;99.90;;;;;;5022349;28;20485;-89
2021/11/24 07:17:02;;;;;;;133.43;27.33;;;5.90;99.90;;;;;;4993484;28;20091;-89
2021/11/24 07:19:28;;;;;;;185.55;33.58;;;5.90;99.90;;;;;;5023008;28;20412;-88
2021/11/24 07:21:54;;;;;;;265.88;30.23;;;5.90;99.90;;;;;;4994230;28;20124;-89
2021/11/24 07:24:19;;;;;;;57.53;19.20;;;5.90;99.90;;;;;;5024207;28;20044;-89
2021/11/24 07:26:45;;;;;;;142.25;28.23;;;5.90;99.90;;;;;;5010422;28;20053;-90
2021/11/24 07:29:11;;;;;;;217.00;28.88;;;5.90;99.90;;;;;;5010784;28;20034;-88
2021/11/24 07:31:36;;;;;;;79.93;22.23;;;5.90;99.90;;;;;;5025087;28;20037;-90
2021/11/24 07:34:02;;;;;;;192.50;33.35;;;5.90;99.90;;;;;;5021919;28;20053;-89
2021/11/24 07:36:28;;;;;;;138.95;31.23;;;5.90;99.90;;;;;;5021873;28;20030;-89
2021/11/24 07:38:53;;;;;;;75.53;21.85;;;5.90;99.90;;;;;;5039800;28;20112;-87
2021/11/24 07:41:19;;;;;;;115.03;27.90;;;6.00;99.90;;;;;;5018212;28;20071;-89
2021/11/24 07:43:45;;;;;;;127.72;29.38;;;6.00;99.90;;;;;;5006915;28;20068;-89
2021/11/24 07:46:11;;;;;;;138.57;32.78;;;5.90;99.90;;;;;;5008618;28;20397;-89
2021/11/24 07:48:37;;;;;;;151.63;33.47;;;6.00;99.90;;;;;;5035791;28;20033;-87
2021/11/24 07:51:02;;;;;;;154.98;31.73;;;6.00;99.90;;;;;;5039101;28;20116;-88
2021/11/24 07:53:28;;;;;;;136.32;28.95;;;6.00;99.90;;;;;;4992004;28;20033;-88
2021/11/24 07:55:53;;;;;;;210.43;34.97;;;6.00;99.90;;;;;;5018410;28;20050;-88
2021/11/24 07:58:20;;;;;;;144.18;30.38;;;6.00;99.90;;;;;;5016198;28;20077;-88
2021/11/24 08:00:46;;;;;;;230.77;33.72;;;6.10;99.90;;;;;;5000745;28;20076;-89
2021/11/24 08:03:12;;;;;;;145.15;26.65;;;6.10;99.90;;;;;;5020239;28;20033;-87
2021/11/24 08:05:37;;;;;;;224.80;34.88;;;6.10;99.90;;;;;;5021424;28;20040;-87
2021/11/24 08:08:03;;;;;;;227.45;34.88;;;6.10;99.90;;;;;;5022423;28;20095;-87
2021/11/24 08:10:29;;;;;;;121.65;27.23;;;6.10;99.90;;;;;;5033519;28;20036;-88
2021/11/24 08:12:54;;;;;;;284.15;38.72;;;6.10;99.90;;;;;;5021198;28;20025;-88
2021/11/24 08:15:20;;;;;;;257.30;34.72;;;6.20;99.90;;;;;;5024378;28;20036;-88
2021/11/24 08:17:46;;;;;;;174.52;33.13;;;6.20;99.90;;;;;;5012620;28;20021;-87
2021/11/24 08:20:12;;;;;;;161.23;31.35;;;6.20;99.90;;;;;;5042225;28;20420;-88
2021/11/24 08:22:38;;;;;;;134.10;29.98;;;6.20;99.90;;;;;;5025828;28;20034;-88
2021/11/24 08:25:04;;;;;;;174.60;36.05;;;6.30;99.90;;;;;;5042708;28;20029;-88
2021/11/24 08:27:29;;;;;;;199.15;35.22;;;6.30;99.90;;;;;;5012746;28;20212;-88
2021/11/24 08:29:55;;;;;;;243.88;33.42;;;6.30;99.90;;;;;;5042039;28;20042;-88
2021/11/24 08:32:20;;;;;;;264.83;37.72;;;6.30;99.90;;;;;;5023554;28;20034;-88
2021/11/24 08:34:46;;;;;;;213.05;34.50;;;6.30;99.90;;;;;;5012055;28;20063;-88
2021/11/24 08:37:12;;;;;;;182.88;31.83;;;6.40;99.90;;;;;;5009958;28;20107;-88
2021/11/24 08:39:37;;;;;;;169.88;33.33;;;6.40;99.90;;;;;;5023890;28;20489;-89
2021/11/24 08:42:04;;;;;;;207.77;36.25;;;6.50;99.90;;;;;;5019851;28;20033;-87
2021/11/24 08:44:29;;;;;;;133.27;29.48;;;6.50;99.90;;;;;;5024741;28;20029;-88
2021/11/24 08:46:55;;;;;;;100.63;23.38;;;6.50;99.90;;;;;;5007496;28;20063;-89
2021/11/24 08:49:20;;;;;;;143.13;27.42;;;6.50;99.90;;;;;;5023992;28;20041;-87
2021/11/24 08:51:46;;;;;;;150.02;34.63;;;6.50;99.90;;;;;;5011658;28;20055;-88
2021/11/24 08:54:12;;;;;;;162.00;33.60;;;6.60;99.90;;;;;;5004852;28;20033;-89
2021/11/24 08:56:38;;;;;;;125.55;30.77;;;6.60;99.90;;;;;;5038330;28;20038;-89
2021/11/24 08:59:04;;;;;;;113.13;27.40;;;6.60;99.90;;;;;;5022620;28;20044;-88
2021/11/24 09:01:31;;;;;;;118.10;28.55;;;6.60;99.90;;;;;;5007688;28;20044;-88
2021/11/24 09:03:56;;;;;;;147.25;31.83;;;6.70;99.90;;;;;;5038517;28;20324;-89
2021/11/24 09:06:22;;;;;;;143.48;33.13;;;6.70;99.90;;;;;;5041582;28;20037;-88
2021/11/24 09:08:48;;;;;;;130.02;33.40;;;6.80;99.90;;;;;;5024092;28;20026;-88
2021/11/24 09:11:15;;;;;;;135.77;32.67;;;6.70;99.90;;;;;;5021590;28;20037;-88
2021/11/24 09:13:40;;;;;;;136.63;30.02;;;6.80;99.90;;;;;;5019616;28;20033;-88
2021/11/24 09:16:06;;;;;;;123.10;31.95;;;6.90;99.90;;;;;;5023551;28;20029;-88
2021/11/24 09:18:32;;;;;;;90.55;23.60;;;6.90;99.90;;;;;;5038312;28;20389;-88
2021/11/24 09:20:57;;;;;;;97.32;27.60;;;6.90;99.90;;;;;;5023139;28;20056;-88
2021/11/24 09:23:25;;;;;;;116.55;29.63;;;7.00;99.90;;;;;;5022085;28;20175;-88
2021/11/24 09:25:53;;;;;;;107.78;28.45;;;7.00;99.90;;;;;;5024508;28;20034;-88
2021/11/24 09:28:20;;;;;;;111.22;28.83;;;7.10;99.90;;;;;;5010604;28;20138;-88
2021/11/24 09:30:45;;;;;;;108.18;30.90;;;7.20;99.90;;;;;;5043638;28;20289;-89
2021/11/24 09:33:11;;;;;;;98.35;26.80;;;7.20;99.90;;;;;;5008875;28;20389;-88
2021/11/24 09:35:37;;;;;;;99.40;26.67;;;7.20;99.90;;;;;;5025497;28;20041;-89
2021/11/24 09:38:04;;;;;;;96.72;26.45;;;7.30;99.90;;;;;;5010541;28;20652;-89
2021/11/24 09:40:31;;;;;;;93.93;28.17;;;7.30;99.90;;;;;;5019567;28;20496;-89
2021/11/24 09:42:59;;;;;;;87.10;27.50;;;7.40;99.90;;;;;;5004734;28;25800;-88
2021/11/24 09:45:26;;;;;;;71.13;22.52;;;7.40;99.90;;;;;;5017968;28;20030;-89
2021/11/24 09:47:52;;;;;;;69.25;23.05;;;7.60;99.90;;;;;;5009384;28;20030;-88
2021/11/24 09:50:22;;;;;;;72.70;23.08;;;7.50;99.90;;;;;;5024562;28;20037;-89
2021/11/24 09:52:48;;;;;;;84.07;23.85;;;7.60;99.90;;;;;;5007720;28;20061;-88
2021/11/24 09:55:13;;;;;;;84.03;27.38;;;7.70;99.90;;;;;;5010214;28;20576;-88
2021/11/24 09:57:39;;;;;;;74.30;23.95;;;7.80;99.90;;;;;;5016311;28;20033;-88
2021/11/24 10:00:05;;;;;;;76.07;25.70;;;7.80;99.90;;;;;;5022254;28;20500;-88
2021/11/24 10:02:31;;;;;;;70.20;23.15;;;7.80;99.90;;;;;;5021280;28;20036;-89
2021/11/24 10:04:57;;;;;;;62.70;21.15;;;7.90;99.90;;;;;;5005518;28;20444;-87
2021/11/24 10:07:22;;;;;;;71.90;24.40;;;8.00;99.90;;;;;;5042064;28;20367;-87
2021/11/24 10:09:48;;;;;;;69.97;24.00;;;8.10;99.90;;;;;;5039402;28;20320;-87
2021/11/24 10:12:13;;;;;;;49.55;16.65;;;8.20;99.90;;;;;;5009771;28;20040;-87
2021/11/24 10:14:40;;;;;;;59.90;20.98;;;8.10;99.90;;;;;;5037149;28;20418;-87
2021/11/24 10:17:07;;;;;;;64.05;23.90;;;8.10;99.90;;;;;;5033725;28;20427;-87
2021/11/24 10:19:33;;;;;;;72.13;23.55;;;8.30;99.90;;;;;;5008330;28;20073;-87
2021/11/24 10:22:04;;;;;;;58.35;21.38;;;8.40;99.90;;;;;;5037091;28;20076;-87
2021/11/24 10:24:40;;;;;;;62.72;22.08;;;8.50;99.90;;;;;;5020670;28;20038;-87
2021/11/24 10:27:09;;;;;;;;;;;8.50;99.90;;;;;;5003288;28;20038;-87
2021/11/24 10:29:36;;;;;;;64.57;22.65;;;8.60;99.90;;;;;;5057194;28;19977;-85
2021/11/24 10:32:05;;;;;;;63.83;23.80;;;8.60;99.90;;;;;;5039887;28;20063;-86
2021/11/24 10:34:36;;;;;;;58.95;23.10;;;8.80;99.90;;;;;;5006399;28;20030;-86
2021/11/24 10:37:09;;;;;;;54.92;21.92;;;8.80;99.90;;;;;;5002684;28;20048;-86
2021/11/24 10:39:41;;;;;;;52.60;20.05;;;8.90;99.90;;;;;;4999880;28;20528;-86
2021/11/24 10:42:08;;;;;;;62.80;22.60;;;8.80;99.90;;;;;;5022024;28;20544;-86
2021/11/24 10:44:35;;;;;;;61.85;22.90;;;8.90;99.90;;;;;;5002207;28;20113;-86
2021/11/24 10:47:00;;;;;;;52.20;20.17;;;9.00;99.90;;;;;;5039286;28;20029;-86
2021/11/24 10:49:36;;;;;;;49.22;20.30;;;9.00;99.90;;;;;;5020369;28;20605;-85
2021/11/24 10:52:16;;;;;;;59.77;22.17;;;9.00;99.90;;;;;;5012143;28;20049;-86
2021/11/24 10:54:42;;;;;;;52.88;22.17;;;9.10;99.90;;;;;;5039259;28;20512;-87
2021/11/24 10:57:10;;;;;;;58.47;20.98;;;9.10;99.90;;;;;;5003361;28;20230;-86
2021/11/24 10:59:42;;;;;;;57.85;21.88;;;9.10;99.90;;;;;;5009575;28;20029;-87
2021/11/24 11:02:35;;;;;;;54.17;21.50;;;9.20;99.90;;;;;;4986126;28;20045;-87
2021/11/24 11:05:06;;;;;;;54.53;20.83;;;9.30;99.90;;;;;;5005553;28;20030;-87
2021/11/24 11:07:49;;;;;;;50.40;19.02;;;9.30;99.90;;;;;;5039936;28;20033;-87
2021/11/24 11:10:15;;;;;;;46.72;19.13;;;9.40;99.90;;;;;;5004101;28;20172;-87
2021/11/24 11:12:43;;;;;;;47.00;19.38;;;9.40;99.90;;;;;;5022704;28;20041;-87
2021/11/24 11:15:19;;;;;;;55.13;19.25;;;9.50;99.90;;;;;;5007456;28;20116;-87
2021/11/24 11:17:50;;;;;;;59.08;21.17;;;9.50;99.90;;;;;;5005916;28;20175;-87
2021/11/24 11:20:16;;;;;;;43.58;18.27;;;9.70;99.90;;;;;;4979488;28;20037;-87
2021/11/24 11:22:44;;;;;;;49.95;18.77;;;9.70;99.90;;;;;;4988690;28;20107;-87
2021/11/24 11:25:13;;;;;;;52.90;19.80;;;9.70;99.90;;;;;;5025048;28;20378;-87
2021/11/24 11:27:40;;;;;;;45.50;19.85;;;9.80;99.90;;;;;;5017281;28;20034;-87
2021/11/24 11:30:06;;;;;;;48.38;18.75;;;9.90;99.90;;;;;;5029541;28;20523;-87
2021/11/24 11:32:31;;;;;;;51.17;21.38;;;10.00;99.90;;;;;;5014830;28;20041;-87
2021/11/24 11:34:57;;;;;;;50.85;19.30;;;10.00;99.90;;;;;;5017813;28;20037;-87
2021/11/24 11:37:23;;;;;;;50.88;19.98;;;10.10;99.90;;;;;;5021556;28;20040;-87
2021/11/24 11:39:49;;;;;;;47.10;20.17;;;10.10;99.90;;;;;;5019892;28;20110;-88
2021/11/24 11:42:15;;;;;;;42.70;18.20;;;10.20;99.90;;;;;;5036356;28;20493;-88
2021/11/24 11:44:40;;;;;;;45.85;18.83;;;10.30;99.90;;;;;;5020053;28;20520;-88
2021/11/24 11:47:06;;;;;;;52.70;19.55;;;10.30;99.90;;;;;;5037087;28;20045;-88
2021/11/24 11:49:32;;;;;;;44.60;19.05;;;10.40;99.90;;;;;;5017585;28;20555;-88
2021/11/24 11:52:05;;;;;;;46.78;19.38;;;10.40;99.90;;;;;;5021203;28;20038;-88
2021/11/24 11:54:32;;;;;;;48.83;20.15;;;10.40;99.90;;;;;;5002882;28;20037;-88
2021/11/24 11:56:59;;;;;;;52.60;19.90;;;10.50;99.90;;;;;;5036121;28;20036;-88
2021/11/24 11:59:29;;;;;;;48.75;18.90;;;10.50;99.90;;;;;;5006370;28;20108;-88
2021/11/24 12:02:00;;;;;;;43.67;18.05;;;10.60;99.90;;;;;;5018636;28;20034;-87
2021/11/24 12:04:29;;;;;;;44.45;18.83;;;10.60;99.90;;;;;;5006332;28;20113;-88
2021/11/24 12:06:57;;;;;;;44.13;18.75;;;10.70;99.90;;;;;;5020252;28;20025;-88
2021/11/24 12:09:46;;;;;;;46.08;18.48;;;10.60;99.90;;;;;;5022442;28;20029;-88
2021/11/24 12:12:19;;;;;;;39.20;16.77;;;10.70;99.90;;;;;;5022314;28;20044;-88
2021/11/24 12:15:16;;;;;;;40.67;17.67;;;10.70;99.90;;;;;;5030888;28;20030;-88
2021/11/24 12:17:57;;;;;;;43.67;17.92;;;10.70;99.90;;;;;;5005209;28;20475;-88
2021/11/24 12:20:26;;;;;;;44.65;16.85;;;10.60;99.90;;;;;;5019572;28;20045;-88
2021/11/24 12:22:54;;;;;;;36.55;15.00;;;10.60;99.90;;;;;;5023756;28;20033;-88
2021/11/24 12:30:52;;;;;;;41.97;16.27;;;10.80;99.90;;;;;;5024674;28;20030;-88
2021/11/24 12:33:28;;;;;;;34.92;15.73;;;10.70;99.90;;;;;;5004373;28;20037;-88
2021/11/24 12:36:15;;;;;;;34.70;16.15;;;10.60;99.90;;;;;;4988108;28;20030;-87